createdAt,value
2019-03-06T00:02:47.750Z,5.97
2019-03-06T00:07:53.160Z,6.23
2019-03-06T00:12:58.980Z,5.93
2019-03-06T00:18:05.267Z,6.17
2019-03-06T00:23:10.450Z,5.67
2019-03-06T00:28:15.876Z,6.50
2019-03-06T00:33:20.949Z,6.37
2019-03-06T00:38:26.003Z,5.77
2019-03-06T00:43:31.063Z,5.90
2019-03-06T00:48:36.192Z,5.77
2019-03-06T00:53:41.249Z,6.67
2019-03-06T00:58:46.424Z,6.43
2019-03-06T01:03:51.883Z,7.97
2019-03-06T01:08:57.021Z,5.93
2019-03-06T01:14:02.146Z,6.57
2019-03-06T01:19:08.305Z,8.50
2019-03-06T01:24:13.702Z,7.30
2019-03-06T01:29:19.501Z,9.73
2019-03-06T01:34:39.327Z,9.03
2019-03-06T01:40:02.079Z,9.00
2019-03-06T01:45:09.520Z,11.40
2019-03-06T01:50:16.504Z,11.30
2019-03-06T01:55:22.198Z,11.80
2019-03-06T02:00:27.366Z,12.17
2019-03-06T02:05:33.802Z,11.20
2019-03-06T02:10:41.505Z,9.87
2019-03-06T02:15:48.199Z,11.80
2019-03-06T02:20:53.607Z,13.33
2019-03-06T02:25:59.692Z,14.53
2019-03-06T02:31:04.852Z,11.77
2019-03-06T02:36:09.970Z,15.20
2019-03-06T02:41:15.143Z,11.97
2019-03-06T02:46:20.666Z,12.30
2019-03-06T02:51:25.727Z,13.23
2019-03-06T02:56:31.126Z,16.17
2019-03-06T03:01:49.749Z,14.97
2019-03-06T03:07:01.207Z,14.83
2019-03-06T03:12:06.331Z,16.90
2019-03-06T03:17:11.847Z,15.57
2019-03-06T03:22:17.294Z,14.10
2019-03-06T03:27:22.711Z,14.73
2019-03-06T03:32:27.784Z,14.53
2019-03-06T03:37:33.416Z,13.60
2019-03-06T03:42:39.353Z,14.50
2019-03-06T03:47:44.517Z,18.20
2019-03-06T03:52:49.648Z,16.07
2019-03-06T03:57:54.810Z,16.17
2019-03-06T04:02:59.878Z,15.03
2019-03-06T04:08:06.360Z,15.67
2019-03-06T04:13:11.610Z,14.30
2019-03-06T04:18:16.775Z,17.10
2019-03-06T04:23:23.659Z,16.70
2019-03-06T04:28:30.250Z,14.20
2019-03-06T04:33:35.762Z,14.63
2019-03-06T04:38:40.923Z,15.17
2019-03-06T04:43:46.386Z,14.97
2019-03-06T04:48:51.468Z,15.17
2019-03-06T04:53:56.632Z,14.63
2019-03-06T04:59:02.059Z,17.27
2019-03-06T05:04:07.223Z,14.60
2019-03-06T05:09:12.745Z,15.60
2019-03-06T05:14:18.280Z,16.63
2019-03-06T05:19:23.452Z,16.33
2019-03-06T05:24:28.622Z,13.97
2019-03-06T05:29:34.718Z,15.73
2019-03-06T05:34:40.504Z,13.87
2019-03-06T05:39:45.682Z,12.87
2019-03-06T05:44:50.769Z,12.80
2019-03-06T05:49:55.924Z,13.33
2019-03-06T05:55:01.374Z,13.67
2019-03-06T06:00:07.415Z,14.60
2019-03-06T06:05:13.605Z,15.17
2019-03-06T06:10:19.561Z,15.63
2019-03-06T06:15:25.341Z,13.87
2019-03-06T06:20:31.522Z,14.47
2019-03-06T06:25:37.282Z,16.20
2019-03-06T06:30:42.525Z,13.77
2019-03-06T06:35:47.790Z,14.57
2019-03-06T06:40:52.964Z,14.27
2019-03-06T06:45:58.471Z,14.80
2019-03-06T06:51:29.920Z,14.90
2019-03-06T06:57:24.597Z,13.13
2019-03-06T07:03:15.238Z,14.87
2019-03-06T07:08:42.500Z,14.60
2019-03-06T07:13:58.725Z,12.37
2019-03-06T07:19:22.869Z,16.23
2019-03-06T07:24:47.013Z,12.40
2019-03-06T07:30:08.022Z,11.47
2019-03-06T07:36:12.661Z,11.57
2019-03-06T07:41:36.847Z,12.40
2019-03-06T07:46:55.035Z,12.77
2019-03-06T07:52:17.951Z,11.87
2019-03-06T07:57:25.685Z,13.17
2019-03-06T08:02:57.093Z,9.67
2019-03-06T08:08:03.473Z,10.13
2019-03-06T08:13:17.647Z,9.50
2019-03-06T08:18:44.599Z,10.10
2019-03-06T08:24:26.861Z,10.23
2019-03-06T08:29:32.057Z,8.03
2019-03-06T08:34:37.667Z,8.10
2019-03-06T08:39:42.830Z,9.87
2019-03-06T08:44:47.972Z,9.13
2019-03-06T08:50:15.274Z,6.85
2019-03-06T08:55:51.509Z,9.63
2019-03-06T09:01:27.707Z,8.73
2019-03-06T09:06:42.995Z,6.97
2019-03-06T09:12:02.015Z,12.03
2019-03-06T09:17:22.009Z,5.27
2019-03-06T09:22:50.010Z,8.40
2019-03-06T09:28:13.159Z,6.57
2019-03-06T09:33:36.643Z,8.60
2019-03-06T09:39:00.013Z,6.20
2019-03-06T09:44:10.525Z,7.10
2019-03-06T09:49:44.890Z,6.95
2019-03-06T09:55:01.023Z,6.75
2019-03-06T10:00:27.833Z,6.42
2019-03-06T10:05:40.261Z,7.03
2019-03-06T10:11:04.288Z,6.90
2019-03-06T10:16:20.880Z,4.50
2019-03-06T10:21:27.532Z,4.83
2019-03-06T10:26:32.763Z,5.58
2019-03-06T10:31:38.762Z,5.95
2019-03-06T10:36:44.961Z,4.77
2019-03-06T10:41:50.444Z,5.17
2019-03-06T10:46:56.069Z,4.20
2019-03-06T10:52:01.682Z,4.08
2019-03-06T10:57:07.046Z,5.58
2019-03-06T11:02:14.715Z,5.28
2019-03-06T11:07:20.786Z,4.25
2019-03-06T11:12:26.519Z,4.40
2019-03-06T11:17:32.716Z,3.83
2019-03-06T11:22:38.624Z,3.02
2019-03-06T11:27:44.001Z,3.02
2019-03-06T11:32:54.365Z,3.50
2019-03-06T11:37:56.662Z,4.53
2019-03-06T11:43:02.868Z,3.98
2019-03-06T11:48:08.997Z,3.00
2019-03-06T11:53:14.745Z,3.42
2019-03-06T11:58:20.241Z,3.70
2019-03-06T12:03:26.476Z,3.42
2019-03-06T12:08:31.830Z,2.67
2019-03-06T12:13:37.454Z,4.97
2019-03-06T12:18:42.977Z,3.22
2019-03-06T12:23:48.221Z,2.50
2019-03-06T12:28:53.793Z,2.35
2019-03-06T12:33:59.033Z,2.45
2019-03-06T12:39:05.887Z,2.95
2019-03-06T12:44:12.803Z,2.65
2019-03-06T12:49:18.886Z,3.12
2019-03-06T12:54:24.206Z,3.87
2019-03-06T12:59:31.252Z,2.00
2019-03-06T13:04:36.629Z,2.22
2019-03-06T13:09:41.874Z,3.25
2019-03-06T13:14:47.983Z,1.82
2019-03-06T13:19:53.329Z,1.90
2019-03-06T13:24:58.572Z,3.10
2019-03-06T13:30:04.414Z,2.77
2019-03-06T13:35:09.941Z,1.82
2019-03-06T13:40:18.481Z,2.12
2019-03-06T13:45:22.564Z,2.10
2019-03-06T13:50:28.219Z,5.00
2019-03-06T13:55:33.764Z,2.52
2019-03-06T14:00:39.647Z,3.95
2019-03-06T14:05:45.381Z,3.45
2019-03-06T14:10:51.982Z,2.45
2019-03-06T14:15:59.696Z,2.83
2019-03-06T14:21:05.725Z,2.33
2019-03-06T14:26:12.367Z,2.35
2019-03-06T14:31:18.289Z,2.83
2019-03-06T14:36:23.825Z,2.77
2019-03-06T14:41:29.878Z,3.52
2019-03-06T14:46:35.496Z,1.75
2019-03-06T14:51:41.130Z,3.33
2019-03-06T14:56:46.557Z,2.00
2019-03-06T15:01:52.979Z,3.70
2019-03-06T15:06:58.209Z,2.00
2019-03-06T15:12:03.457Z,2.75
2019-03-06T15:17:08.732Z,4.78
2019-03-06T15:22:13.977Z,2.15
2019-03-06T15:27:19.818Z,2.80
2019-03-06T15:32:25.735Z,2.33
2019-03-06T15:37:31.070Z,2.17
2019-03-06T15:42:38.488Z,3.27
2019-03-06T15:47:44.092Z,2.52
2019-03-06T15:52:50.340Z,3.15
2019-03-06T15:57:55.997Z,2.57
2019-03-06T16:03:01.449Z,2.55
2019-03-06T16:08:07.481Z,2.35
2019-03-06T16:13:14.058Z,2.00
2019-03-06T16:18:20.523Z,3.62
2019-03-06T16:23:25.847Z,2.65
2019-03-06T16:28:31.360Z,2.80
2019-03-06T16:33:36.672Z,4.55
2019-03-06T16:38:42.277Z,3.33
2019-03-06T16:43:47.507Z,2.35
2019-03-06T16:48:52.932Z,3.77
2019-03-06T16:53:58.094Z,2.60
2019-03-06T16:59:04.900Z,2.10
2019-03-06T17:04:11.691Z,4.10
2019-03-06T17:09:17.707Z,2.40
2019-03-06T17:14:24.362Z,3.08
2019-03-06T17:19:30.989Z,2.92
2019-03-06T17:24:36.496Z,2.20
2019-03-06T17:29:41.735Z,2.40
2019-03-06T17:34:46.975Z,2.72
2019-03-06T17:39:52.211Z,2.10
2019-03-06T17:44:57.530Z,2.83
2019-03-06T17:50:04.572Z,2.22
2019-03-06T17:55:11.970Z,2.42
2019-03-06T18:00:18.765Z,4.10
2019-03-06T18:05:24.104Z,2.00
2019-03-06T18:10:29.423Z,3.12
2019-03-06T18:15:34.757Z,2.55
2019-03-06T18:20:40.977Z,1.80
2019-03-06T18:25:46.155Z,3.67
2019-03-06T18:30:51.488Z,10.82
2019-03-06T18:35:56.757Z,2.05
2019-03-06T18:41:02.893Z,3.60
2019-03-06T18:46:08.986Z,2.12
2019-03-06T18:51:14.891Z,2.15
2019-03-06T18:56:20.442Z,2.00
2019-03-06T19:01:26.931Z,1.93
2019-03-06T19:06:32.545Z,1.82
2019-03-06T19:11:39.024Z,1.60
2019-03-06T19:16:44.638Z,1.87
2019-03-06T19:21:49.877Z,2.33
2019-03-06T19:26:55.166Z,2.93
2019-03-06T19:32:00.413Z,2.17
2019-03-06T19:37:06.179Z,2.47
2019-03-06T19:42:11.631Z,1.82
2019-03-06T19:47:17.807Z,4.53
2019-03-06T19:52:23.154Z,2.50
2019-03-06T19:57:29.957Z,2.33
2019-03-06T20:02:35.465Z,2.53
2019-03-06T20:07:40.725Z,3.10
2019-03-06T20:12:45.973Z,2.80
2019-03-06T20:17:51.562Z,3.42
2019-03-06T20:22:56.722Z,1.97
2019-03-06T20:28:02.366Z,2.83
2019-03-06T20:33:08.033Z,1.92
2019-03-06T20:38:13.446Z,2.25
2019-03-06T20:43:18.693Z,2.27
2019-03-06T20:48:24.264Z,4.40
2019-03-06T20:53:29.435Z,1.90
2019-03-06T20:58:35.628Z,2.40
2019-03-06T21:03:41.389Z,2.27
2019-03-06T21:08:46.557Z,3.47
2019-03-06T21:13:52.177Z,5.40
2019-03-06T21:18:58.090Z,2.67
2019-03-06T21:24:03.398Z,2.33
2019-03-06T21:29:09.600Z,2.25
2019-03-06T21:34:16.725Z,1.75
2019-03-06T21:39:24.067Z,2.37
2019-03-06T21:44:29.307Z,2.85
2019-03-06T21:49:34.605Z,2.00
2019-03-06T21:54:41.319Z,1.80
2019-03-06T21:59:46.745Z,2.33
2019-03-06T22:04:52.192Z,3.33
2019-03-06T22:09:57.456Z,1.92
2019-03-06T22:15:05.775Z,2.07
2019-03-06T22:20:12.056Z,3.27
2019-03-06T22:25:17.969Z,2.33
2019-03-06T22:30:23.561Z,3.05
2019-03-06T22:35:29.091Z,1.90
2019-03-06T22:40:34.540Z,3.07
2019-03-06T22:45:40.071Z,1.95
2019-03-06T22:50:45.375Z,1.72
2019-03-06T22:55:50.547Z,2.40
2019-03-06T23:01:06.546Z,2.95
2019-03-06T23:06:13.747Z,3.00
2019-03-06T23:11:18.994Z,2.37
2019-03-06T23:16:25.092Z,2.85
2019-03-06T23:21:30.259Z,2.37
2019-03-06T23:26:42.674Z,3.98
2019-03-06T23:31:42.875Z,2.67
2019-03-06T23:36:48.102Z,3.35
2019-03-06T23:41:53.925Z,3.80
2019-03-06T23:47:00.023Z,2.20
2019-03-06T23:52:13.982Z,3.37
2019-03-06T23:57:19.212Z,1.60
